Time;durP1;ratioP1;P1;durP2;ratioP2;P2;SDS_P1;SDS_P2;PMS_P1;PMS_P2;Temp;Humidity;BMP_temperature;BMP_pressure;BME280_temperature;BME280_humidity;BME280_pressure;Samples;Min_cycle;Max_cycle;Signal;HPM_P1;HPM_P2
2023/05/09 00:01:53;;;;;;;;;;;;;;;12.97;96.47;100049.09;5091460;28;19923;-41
2023/05/09 00:04:19;;;;;;;;;;;;;;;13.09;96.04;100044.72;5091239;28;19912;-41
2023/05/09 00:06:44;;;;;;;;;;;;;;;13.16;95.98;100044.69;5091796;28;19912;-41
2023/05/09 00:09:10;;;;;;;;;;;;;;;13.10;96.11;100045.56;5091358;28;19923;-40
2023/05/09 00:11:35;;;;;;;;;;;;;;;12.80;98.33;100040.72;5091711;28;19916;-41
2023/05/09 00:14:01;;;;;;;;;;;;;;;13.08;97.14;100048.44;5091554;28;19912;-41
2023/05/09 00:16:27;;;;;;;;;;;;;;;12.93;96.72;100039.03;5091689;28;19935;-41
2023/05/09 00:18:52;;;;;;;;;;;;;;;12.86;97.65;100045.22;5091372;28;19993;-41
2023/05/09 00:21:18;;;;;;;;;;;;;;;12.60;100.00;100039.97;5091334;28;20399;-40
2023/05/09 00:23:43;;;;;;;;;;;;;;;12.68;100.00;100045.91;5091616;28;20060;-41
2023/05/09 00:26:09;;;;;;;;;;;;;;;12.62;100.00;100041.41;5091117;28;19920;-41
2023/05/09 00:28:34;;;;;;;;;;;;;;;12.99;100.00;100041.69;5091380;28;19956;-40
2023/05/09 00:30:59;;;;;;;;;;;;;;;13.10;97.96;100042.88;5091205;28;19912;-40
2023/05/09 00:33:25;;;;;;;;;;;;;;;13.18;98.08;100049.81;5091214;28;19951;-41
2023/05/09 00:35:52;;;;;;;;;;;;;;;13.04;98.58;100049.88;5091656;28;19918;-40
2023/05/09 00:38:17;;;;;;;;;;;;;;;13.22;96.96;100048.38;5091131;28;19941;-41
2023/05/09 00:40:42;;;;;;;;;;;;;;;13.51;96.41;100046.19;5091022;28;19916;-41
2023/05/09 00:43:07;;;;;;;;;;;;;;;13.52;95.51;100053.16;5091078;28;19952;-41
2023/05/09 00:45:33;;;;;;;;;;;;;;;13.81;93.96;100059.75;5091088;28;19912;-41
2023/05/09 00:47:58;;;;;;;;;;;;;;;12.89;96.53;100054.69;5091357;28;19996;-40
2023/05/09 00:50:23;;;;;;;;;;;;;;;13.37;97.47;100059.63;5091150;28;20295;-41
2023/05/09 00:52:50;;;;;;;;;;;;;;;13.13;96.02;100063.00;5091053;28;19969;-41
2023/05/09 00:55:16;;;;;;;;;;;;;;;12.98;97.83;100063.25;5091628;28;19912;-41
2023/05/09 00:57:41;;;;;;;;;;;;;;;13.43;94.73;100066.78;5090612;28;20288;-41
2023/05/09 01:00:11;;;;;;;;;;;;;;;12.89;97.36;100058.16;5090519;28;20393;-40
2023/05/09 01:02:37;;;;;;;;;;;;;;;13.02;96.85;100059.97;5090630;28;19998;-41
2023/05/09 01:05:02;;;;;;;;;;;;;;;12.96;98.54;100060.78;5091023;28;19920;-40
2023/05/09 01:07:37;;;;;;;;;;;;;;;13.04;97.15;100057.06;5090864;28;19916;-41
2023/05/09 01:10:20;;;;;;;;;;;;;;;13.07;95.98;100070.81;5091283;28;19923;-41
2023/05/09 01:12:54;;;;;;;;;;;;;;;13.12;95.90;100067.53;5094945;28;19912;-42
2023/05/09 01:15:25;;;;;;;;;;;;;;;12.82;96.25;100067.22;5094664;28;19919;-41
2023/05/09 01:17:59;;;;;;;;;;;;;;;12.70;96.57;100067.88;5094791;28;20341;-41
2023/05/09 01:20:46;;;;;;;;;;;;;;;12.56;98.73;100079.59;5094619;28;19912;-41
2023/05/09 01:23:27;;;;;;;;;;;;;;;12.62;99.23;100072.59;5094226;28;20390;-41
2023/05/09 01:25:55;;;;;;;;;;;;;;;12.97;96.31;100078.47;5094548;28;19916;-40
2023/05/09 01:28:30;;;;;;;;;;;;;;;13.34;95.37;100077.94;5094465;28;19974;-41
2023/05/09 01:30:55;;;;;;;;;;;;;;;13.18;94.06;100079.22;5094214;28;19957;-42
2023/05/09 01:33:22;;;;;;;;;;;;;;;12.99;95.16;100078.28;5094036;28;19917;-42
2023/05/09 01:35:50;;;;;;;;;;;;;;;12.55;98.10;100074.50;5094318;28;19912;-42
2023/05/09 01:38:17;;;;;;;;;;;;;;;12.56;99.38;100076.13;5094374;28;19916;-42
2023/05/09 01:40:44;;;;;;;;;;;;;;;12.80;96.13;100074.63;5093986;28;19919;-42
2023/05/09 01:43:10;;;;;;;;;;;;;;;12.85;96.16;100072.13;5093983;28;19912;-42
2023/05/09 01:45:37;;;;;;;;;;;;;;;13.25;94.13;100069.31;5093798;28;19944;-42
2023/05/09 01:48:04;;;;;;;;;;;;;;;13.11;93.16;100066.69;5093739;28;20395;-42
2023/05/09 01:50:30;;;;;;;;;;;;;;;13.23;94.21;100076.72;5093972;28;19934;-42
2023/05/09 01:52:57;;;;;;;;;;;;;;;13.17;94.79;100078.38;5093489;28;19920;-41
2023/05/09 01:55:25;;;;;;;;;;;;;;;13.44;92.63;100072.94;5093623;28;19916;-41
2023/05/09 01:57:51;;;;;;;;;;;;;;;12.90;95.02;100073.13;5093812;28;19969;-41
2023/05/09 02:00:17;;;;;;;;;;;;;;;13.06;95.24;100069.19;5094042;28;19912;-41
2023/05/09 02:02:42;;;;;;;;;;;;;;;13.14;93.49;100078.00;5093183;28;19916;-42
2023/05/09 02:05:09;;;;;;;;;;;;;;;13.05;93.76;100090.78;5093681;28;20398;-42
2023/05/09 02:07:35;;;;;;;;;;;;;;;12.58;96.18;100087.41;5093574;28;19916;-42
2023/05/09 02:10:01;;;;;;;;;;;;;;;12.68;97.43;100085.13;5093514;28;19960;-42
2023/05/09 02:12:27;;;;;;;;;;;;;;;12.77;96.19;100075.03;5093890;28;19912;-41
2023/05/09 02:14:52;;;;;;;;;;;;;;;13.01;94.77;100079.69;5093699;28;19994;-42
2023/05/09 02:17:18;;;;;;;;;;;;;;;12.90;94.63;100088.34;5091060;28;19926;-41
2023/05/09 02:19:43;;;;;;;;;;;;;;;12.61;95.92;100089.66;5093474;28;19923;-42
2023/05/09 02:22:09;;;;;;;;;;;;;;;12.42;98.35;100086.81;5093291;28;19916;-41
2023/05/09 02:24:34;;;;;;;;;;;;;;;12.77;95.58;100091.88;5093285;28;19935;-42
2023/05/09 02:27:01;;;;;;;;;;;;;;;12.45;97.90;100083.75;5092051;28;20324;-41
2023/05/09 02:29:30;;;;;;;;;;;;;;;12.44;99.98;100087.41;5096713;28;19927;-42
2023/05/09 02:31:58;;;;;;;;;;;;;;;12.68;98.22;100087.81;5087329;28;20356;-42
2023/05/09 02:34:23;;;;;;;;;;;;;;;12.97;96.18;100088.34;5089845;28;19912;-41
2023/05/09 02:36:49;;;;;;;;;;;;;;;12.96;95.66;100100.84;5100621;28;20022;-41
2023/05/09 02:39:14;;;;;;;;;;;;;;;12.97;95.37;100099.03;5108490;28;19919;-41
2023/05/09 02:41:46;;;;;;;;;;;;;;;12.75;96.67;100095.78;5092845;28;19981;-41
2023/05/09 02:44:11;;;;;;;;;;;;;;;12.47;97.17;100105.69;5093136;28;20246;-42
2023/05/09 02:46:37;;;;;;;;;;;;;;;12.36;98.83;100103.66;5092932;28;19962;-42
2023/05/09 02:49:02;;;;;;;;;;;;;;;12.60;98.12;100104.03;5092893;28;19946;-42
2023/05/09 02:51:27;;;;;;;;;;;;;;;12.92;95.36;100105.00;5092848;28;20007;-41
2023/05/09 02:53:52;;;;;;;;;;;;;;;13.08;95.57;100106.41;5093038;28;19912;-41
2023/05/09 02:56:18;;;;;;;;;;;;;;;12.95;94.19;100103.78;5092723;28;19958;-43
2023/05/09 02:58:49;;;;;;;;;;;;;;;12.95;94.74;100109.09;5089733;28;19923;-40
2023/05/09 03:01:15;;;;;;;;;;;;;;;13.16;93.69;100111.50;5092541;28;19916;-42
2023/05/09 03:03:40;;;;;;;;;;;;;;;12.60;95.60;100101.34;5092423;28;19973;-42
2023/05/09 03:06:05;;;;;;;;;;;;;;;12.95;95.25;100106.44;5092808;28;19912;-40
2023/05/09 03:08:31;;;;;;;;;;;;;;;13.22;93.58;100102.63;5092400;28;20332;-40
2023/05/09 03:10:56;;;;;;;;;;;;;;;13.01;94.75;100110.94;5092568;28;19919;-42
2023/05/09 03:13:21;;;;;;;;;;;;;;;12.84;94.42;100118.56;5092432;28;19935;-42
2023/05/09 03:15:46;;;;;;;;;;;;;;;13.27;93.10;100124.19;5085164;28;19916;-42
2023/05/09 03:18:12;;;;;;;;;;;;;;;12.82;94.55;100126.78;5092395;28;20005;-43
2023/05/09 03:20:37;;;;;;;;;;;;;;;12.51;96.97;100122.13;5092396;28;19916;-42
2023/05/09 03:23:02;;;;;;;;;;;;;;;12.49;97.80;100130.34;5092330;28;19999;-42
2023/05/09 03:25:28;;;;;;;;;;;;;;;12.76;96.73;100138.31;5091798;28;19916;-43
2023/05/09 03:27:53;;;;;;;;;;;;;;;12.99;95.31;100145.06;5091522;28;19924;-43
2023/05/09 03:30:19;;;;;;;;;;;;;;;13.36;93.07;100132.00;5091593;28;20429;-40
2023/05/09 03:32:44;;;;;;;;;;;;;;;13.40;92.03;100141.22;5091383;28;19920;-40
2023/05/09 03:35:10;;;;;;;;;;;;;;;13.27;93.12;100142.91;5091272;28;19912;-41
2023/05/09 03:37:35;;;;;;;;;;;;;;;12.91;94.96;100138.09;5091512;28;19948;-41
2023/05/09 03:40:00;;;;;;;;;;;;;;;13.02;94.77;100148.13;5091806;28;20340;-41
2023/05/09 03:42:25;;;;;;;;;;;;;;;12.95;94.81;100146.50;5091620;28;19916;-40
2023/05/09 03:44:51;;;;;;;;;;;;;;;13.37;93.95;100147.03;5092042;28;19994;-42
2023/05/09 03:47:17;;;;;;;;;;;;;;;13.44;93.24;100145.97;5092358;28;20383;-41
2023/05/09 03:49:42;;;;;;;;;;;;;;;13.65;93.07;100160.88;5091587;28;20538;-41
2023/05/09 03:52:07;;;;;;;;;;;;;;;13.19;93.67;100161.81;5092104;28;19923;-41
2023/05/09 03:54:33;;;;;;;;;;;;;;;13.51;91.92;100153.94;5091976;28;20298;-41
2023/05/09 03:56:58;;;;;;;;;;;;;;;13.74;91.08;100157.94;5091730;28;20003;-42
2023/05/09 03:59:23;;;;;;;;;;;;;;;13.06;93.29;100161.88;5091793;28;19912;-41
2023/05/09 04:01:49;;;;;;;;;;;;;;;13.29;93.49;100162.22;5091267;28;19920;-42
2023/05/09 04:04:14;;;;;;;;;;;;;;;12.68;95.94;100162.56;5091712;28;19923;-42
2023/05/09 04:06:40;;;;;;;;;;;;;;;12.93;95.99;100167.22;5091592;28;20388;-42
2023/05/09 04:09:05;;;;;;;;;;;;;;;13.06;94.88;100161.88;5091624;28;19912;-41
2023/05/09 04:11:31;;;;;;;;;;;;;;;13.25;93.42;100160.16;5091769;28;19919;-42
2023/05/09 04:13:56;;;;;;;;;;;;;;;13.14;94.41;100161.66;5091972;28;19912;-43
2023/05/09 04:16:21;;;;;;;;;;;;;;;13.45;93.12;100155.59;5091189;28;19985;-41
2023/05/09 04:18:46;;;;;;;;;;;;;;;13.09;94.75;100161.47;5091367;28;19913;-42
2023/05/09 04:21:12;;;;;;;;;;;;;;;13.54;92.30;100172.25;5091342;28;19920;-43
2023/05/09 04:23:37;;;;;;;;;;;;;;;13.03;93.82;100164.97;5091377;28;19923;-42
2023/05/09 04:26:03;;;;;;;;;;;;;;;13.33;94.03;100173.34;5090950;28;19920;-42
2023/05/09 04:28:28;;;;;;;;;;;;;;;13.64;91.83;100167.25;5090793;28;19919;-43
2023/05/09 04:30:53;;;;;;;;;;;;;;;14.04;89.26;100169.69;5091027;28;19917;-42
2023/05/09 04:33:20;;;;;;;;;;;;;;;13.79;89.75;100166.97;5090792;28;19985;-42
2023/05/09 04:35:45;;;;;;;;;;;;;;;13.96;90.15;100166.47;5091133;28;19912;-42
2023/05/09 04:38:11;;;;;;;;;;;;;;;14.35;87.87;100173.38;5091564;28;19912;-42
2023/05/09 04:40:36;;;;;;;;;;;;;;;14.34;87.49;100173.63;5091486;28;19920;-43
2023/05/09 04:43:02;;;;;;;;;;;;;;;14.40;86.87;100168.22;5091251;28;19927;-43
2023/05/09 04:45:27;;;;;;;;;;;;;;;14.41;86.39;100175.22;5092577;28;19912;-43
2023/05/09 04:47:52;;;;;;;;;;;;;;;13.48;88.00;100175.75;5094809;28;20366;-42
2023/05/09 04:50:17;;;;;;;;;;;;;;;13.30;91.65;100173.75;5094960;28;19985;-42
2023/05/09 04:52:43;;;;;;;;;;;;;;;12.70;94.13;100171.19;5094433;28;20069;-42
2023/05/09 04:55:08;;;;;;;;;;;;;;;12.66;94.73;100173.47;5095021;28;20312;-42
2023/05/09 04:57:33;;;;;;;;;;;;;;;12.51;95.24;100189.69;5094820;28;19912;-42
2023/05/09 04:59:59;;;;;;;;;;;;;;;12.36;96.49;100177.56;5094349;28;19912;-42
2023/05/09 05:02:24;;;;;;;;;;;;;;;12.70;93.87;100190.69;5094039;28;20034;-42
2023/05/09 05:04:50;;;;;;;;;;;;;;;12.94;95.17;100175.06;5094251;28;20394;-42
2023/05/09 05:07:15;;;;;;;;;;;;;;;12.86;93.54;100180.63;5094623;28;19918;-42
2023/05/09 05:09:40;;;;;;;;;;;;;;;12.86;94.87;100184.09;5094276;28;19931;-42
2023/05/09 05:12:06;;;;;;;;;;;;;;;12.83;93.07;100183.69;5094422;28;19958;-41
2023/05/09 05:14:31;;;;;;;;;;;;;;;12.65;94.75;100195.03;5094845;28;19966;-42
2023/05/09 05:16:57;;;;;;;;;;;;;;;12.26;96.37;100194.81;5093374;28;20003;-47
2023/05/09 05:19:22;;;;;;;;;;;;;;;12.47;94.39;100184.94;5094016;28;20414;-47
2023/05/09 05:21:47;;;;;;;;;;;;;;;12.74;93.55;100192.94;5093333;28;20260;-47
2023/05/09 05:24:12;;;;;;;;;;;;;;;12.82;93.33;100185.56;5093060;28;19912;-46
2023/05/09 05:26:38;;;;;;;;;;;;;;;12.82;93.65;100188.22;5092126;28;19920;-47
2023/05/09 05:29:03;;;;;;;;;;;;;;;12.92;92.98;100190.47;5092950;28;19920;-48
2023/05/09 05:31:28;;;;;;;;;;;;;;;12.69;93.05;100193.56;5093114;28;20268;-47
2023/05/09 05:33:54;;;;;;;;;;;;;;;12.85;93.09;100190.50;5092759;28;19912;-47
2023/05/09 05:36:19;;;;;;;;;;;;;;;13.23;91.17;100202.31;5073334;28;20487;-47
2023/05/09 05:38:44;;;;;;;;;;;;;;;13.20;90.83;100200.09;5072824;28;20328;-47
2023/05/09 05:41:10;;;;;;;;;;;;;;;13.28;89.82;100202.53;5072500;28;19955;-46
2023/05/09 05:43:35;;;;;;;;;;;;;;;13.22;90.70;100209.53;5072700;28;19912;-47
2023/05/09 05:46:00;;;;;;;;;;;;;;;13.00;90.99;100208.13;5072790;28;20030;-50
2023/05/09 05:48:26;;;;;;;;;;;;;;;12.71;93.69;100202.19;5086735;28;19912;-43
2023/05/09 05:50:51;;;;;;;;;;;;;;;13.16;91.81;100205.03;5092665;28;19967;-43
2023/05/09 05:53:16;;;;;;;;;;;;;;;12.81;93.18;100207.13;5093319;28;19912;-42
2023/05/09 05:55:44;;;;;;;;;;;;;;;13.10;91.31;100206.69;5092958;28;19980;-43
2023/05/09 05:58:10;;;;;;;;;;;;;;;13.38;90.50;100204.78;5092863;28;19916;-43
2023/05/09 06:00:35;;;;;;;;;;;;;;;13.16;90.63;100202.34;5092977;28;19956;-43
2023/05/09 06:03:00;;;;;;;;;;;;;;;12.71;93.20;100207.53;5092811;28;20243;-43
2023/05/09 06:05:25;;;;;;;;;;;;;;;13.32;92.19;100201.09;5092691;28;19912;-43
2023/05/09 06:07:51;;;;;;;;;;;;;;;13.40;90.29;100200.03;5092453;28;20336;-44
2023/05/09 06:10:16;;;;;;;;;;;;;;;13.33;90.93;100202.75;5093234;28;19935;-43
2023/05/09 06:12:41;;;;;;;;;;;;;;;13.20;91.57;100208.91;5092325;28;20402;-45
2023/05/09 06:15:07;;;;;;;;;;;;;;;13.08;92.06;100205.25;5093053;28;19908;-42
2023/05/09 06:17:32;;;;;;;;;;;;;;;13.41;90.25;100212.38;5093242;28;19916;-42
2023/05/09 06:19:58;;;;;;;;;;;;;;;13.33;90.76;100215.28;5092880;28;19920;-43
2023/05/09 06:22:23;;;;;;;;;;;;;;;12.84;90.88;100212.88;5092888;28;19916;-43
2023/05/09 06:24:48;;;;;;;;;;;;;;;12.36;93.82;100215.75;5092821;28;20307;-44
2023/05/09 06:27:13;;;;;;;;;;;;;;;12.77;93.59;100206.72;5090977;28;20018;-43
2023/05/09 06:29:39;;;;;;;;;;;;;;;13.20;91.54;100206.25;5091757;28;19920;-42
2023/05/09 06:32:04;;;;;;;;;;;;;;;13.61;89.18;100204.28;5091346;28;19912;-42
2023/05/09 06:34:30;;;;;;;;;;;;;;;13.85;87.28;100203.56;5092027;28;19919;-42
2023/05/09 06:36:55;;;;;;;;;;;;;;;13.59;86.34;100209.84;5092327;28;19912;-42
2023/05/09 06:39:20;;;;;;;;;;;;;;;13.00;91.02;100213.47;5092562;28;19912;-42
2023/05/09 06:41:45;;;;;;;;;;;;;;;13.13;90.33;100210.78;5092174;28;20391;-42
2023/05/09 06:44:11;;;;;;;;;;;;;;;13.43;88.48;100213.00;5092294;28;19920;-42
2023/05/09 06:46:36;;;;;;;;;;;;;;;13.89;86.40;100218.13;5092245;28;19912;-42
2023/05/09 06:49:01;;;;;;;;;;;;;;;13.24;87.86;100199.44;5089446;28;19965;-42
2023/05/09 06:51:27;;;;;;;;;;;;;;;13.47;88.47;100201.66;5087561;28;20380;-42
2023/05/09 06:53:52;;;;;;;;;;;;;;;13.41;88.47;100212.38;5089080;28;20018;-42
2023/05/09 06:56:18;;;;;;;;;;;;;;;13.40;89.21;100208.06;5090455;28;19923;-42
2023/05/09 06:58:44;;;;;;;;;;;;;;;13.11;90.71;100212.84;5092355;28;19919;-42
2023/05/09 07:01:09;;;;;;;;;;;;;;;13.38;89.71;100216.28;5091758;28;19916;-40
2023/05/09 07:03:34;;;;;;;;;;;;;;;13.96;88.45;100215.44;5091940;28;19978;-41
2023/05/09 07:06:00;;;;;;;;;;;;;;;13.87;87.00;100217.53;5091828;28;19994;-41
2023/05/09 07:08:25;;;;;;;;;;;;;;;14.16;85.71;100217.19;5091063;28;19912;-42
2023/05/09 07:10:51;;;;;;;;;;;;;;;13.48;88.14;100218.53;5092383;28;19939;-42
2023/05/09 07:13:16;;;;;;;;;;;;;;;13.16;89.23;100228.25;5091480;28;20276;-41
2023/05/09 07:15:41;;;;;;;;;;;;;;;13.68;87.67;100215.78;5091751;28;19912;-41
2023/05/09 07:18:07;;;;;;;;;;;;;;;13.04;90.07;100222.69;5091704;28;19969;-42
2023/05/09 07:20:32;;;;;;;;;;;;;;;13.54;88.06;100231.06;5091774;28;19920;-41
2023/05/09 07:22:57;;;;;;;;;;;;;;;13.39;89.47;100228.63;5091935;28;19912;-41
2023/05/09 07:25:23;;;;;;;;;;;;;;;12.99;89.81;100241.22;5091833;28;19912;-42
2023/05/09 07:27:48;;;;;;;;;;;;;;;13.26;89.04;100229.44;5091423;28;20334;-42
2023/05/09 07:30:13;;;;;;;;;;;;;;;12.98;89.71;100228.88;5091751;28;19919;-42
2023/05/09 07:32:39;;;;;;;;;;;;;;;13.38;88.43;100223.50;5091712;28;20299;-42
2023/05/09 07:35:04;;;;;;;;;;;;;;;13.92;86.16;100224.09;5091871;28;19916;-42
2023/05/09 07:37:30;;;;;;;;;;;;;;;13.73;86.77;100232.03;5092071;28;19968;-42
2023/05/09 07:39:55;;;;;;;;;;;;;;;13.62;87.54;100217.44;5091816;28;20303;-42
2023/05/09 07:42:21;;;;;;;;;;;;;;;14.10;85.29;100221.53;5091621;28;19947;-42
2023/05/09 07:44:46;;;;;;;;;;;;;;;14.22;84.62;100225.19;5091560;28;20373;-42
2023/05/09 07:47:11;;;;;;;;;;;;;;;13.79;86.47;100220.47;5091470;28;20464;-41
2023/05/09 07:49:37;;;;;;;;;;;;;;;13.65;87.54;100219.72;5091399;28;19918;-42
2023/05/09 07:52:02;;;;;;;;;;;;;;;13.86;85.22;100226.63;5091687;28;19926;-43
2023/05/09 07:54:27;;;;;;;;;;;;;;;13.25;87.13;100233.16;5091407;28;19912;-41
2023/05/09 07:56:53;;;;;;;;;;;;;;;13.66;87.25;100236.56;5091154;28;19951;-41
2023/05/09 07:59:19;;;;;;;;;;;;;;;13.73;86.76;100233.84;5091203;28;20010;-41
2023/05/09 08:01:44;;;;;;;;;;;;;;;14.00;85.92;100247.94;5091316;28;20068;-42
2023/05/09 08:04:10;;;;;;;;;;;;;;;13.14;87.84;100233.81;5090885;28;19923;-42
2023/05/09 08:06:35;;;;;;;;;;;;;;;13.27;88.75;100238.31;5090728;28;19948;-42
2023/05/09 08:09:01;;;;;;;;;;;;;;;13.50;87.35;100243.22;5091080;28;20458;-41
2023/05/09 08:11:26;;;;;;;;;;;;;;;12.93;90.13;100242.88;5091304;28;19934;-42
2023/05/09 08:13:52;;;;;;;;;;;;;;;13.51;89.25;100233.34;5090769;28;19912;-42
2023/05/09 08:16:17;;;;;;;;;;;;;;;13.17;89.54;100224.53;5087517;28;19912;-43
2023/05/09 08:18:42;;;;;;;;;;;;;;;13.49;88.65;100233.53;5089440;28;19916;-41
2023/05/09 08:21:08;;;;;;;;;;;;;;;13.47;89.59;100222.22;5086811;28;19920;-42
2023/05/09 08:23:33;;;;;;;;;;;;;;;13.38;89.40;100234.19;5087395;28;20179;-39
2023/05/09 08:25:58;;;;;;;;;;;;;;;13.37;87.84;100229.88;5090819;28;19978;-41
2023/05/09 08:28:24;;;;;;;;;;;;;;;13.37;89.08;100237.91;5089984;28;19916;-41
2023/05/09 08:30:50;;;;;;;;;;;;;;;13.03;89.76;100229.91;5090836;28;20003;-41
2023/05/09 08:33:15;;;;;;;;;;;;;;;13.28;88.78;100230.06;5090167;28;19920;-41
2023/05/09 08:35:41;;;;;;;;;;;;;;;13.38;88.77;100226.97;5090560;28;19912;-41
2023/05/09 08:38:06;;;;;;;;;;;;;;;13.74;85.57;100219.47;5090361;28;19919;-41
2023/05/09 08:40:34;;;;;;;;;;;;;;;13.72;86.83;100229.56;5090435;28;19969;-41
2023/05/09 08:42:59;;;;;;;;;;;;;;;13.68;86.01;100239.84;5090606;28;20382;-41
2023/05/09 08:45:28;;;;;;;;;;;;;;;13.80;86.16;100230.16;5090687;28;20003;-41
2023/05/09 08:47:54;;;;;;;;;;;;;;;13.26;89.47;100233.97;5090566;28;19916;-40
2023/05/09 08:50:19;;;;;;;;;;;;;;;13.54;88.50;100228.38;5090306;28;19919;-42
2023/05/09 08:52:45;;;;;;;;;;;;;;;13.81;86.88;100228.28;5090836;28;19980;-42
2023/05/09 08:55:11;;;;;;;;;;;;;;;13.92;86.39;100232.97;5090525;28;19938;-41
2023/05/09 08:57:36;;;;;;;;;;;;;;;13.86;85.29;100223.13;5090696;28;19969;-42
2023/05/09 09:00:05;;;;;;;;;;;;;;;13.66;85.01;100240.06;5090362;28;20397;-41
2023/05/09 09:02:31;;;;;;;;;;;;;;;13.49;86.78;100225.50;5090635;28;19920;-41
2023/05/09 09:04:56;;;;;;;;;;;;;;;13.95;85.21;100221.81;5090160;28;19912;-40
2023/05/09 09:07:22;;;;;;;;;;;;;;;14.51;83.39;100235.47;5090555;28;20364;-41
2023/05/09 09:09:48;;;;;;;;;;;;;;;14.55;81.78;100226.81;5090444;28;19919;-41
2023/05/09 09:12:14;;;;;;;;;;;;;;;13.87;83.98;100241.59;5090235;28;20283;-41
2023/05/09 09:14:41;;;;;;;;;;;;;;;13.49;84.96;100237.03;5090265;28;20291;-41
2023/05/09 09:17:07;;;;;;;;;;;;;;;13.16;85.88;100234.41;5090365;28;19947;-40
2023/05/09 09:19:34;;;;;;;;;;;;;;;13.33;86.50;100228.63;5090276;28;19973;-42
2023/05/09 09:22:03;;;;;;;;;;;;;;;13.54;85.65;100231.06;5089762;28;20014;-42
2023/05/09 09:24:28;;;;;;;;;;;;;;;14.00;83.29;100234.56;5089920;28;19912;-41
2023/05/09 09:26:53;;;;;;;;;;;;;;;13.77;83.55;100237.78;5089701;28;20006;-41
2023/05/09 09:29:22;;;;;;;;;;;;;;;13.48;84.53;100237.25;5090080;28;19923;-42
2023/05/09 09:31:51;;;;;;;;;;;;;;;13.44;86.01;100222.66;5091316;28;19922;-42
2023/05/09 09:34:21;;;;;;;;;;;;;;;13.74;83.53;100222.94;5093781;28;20388;-41
2023/05/09 09:36:47;;;;;;;;;;;;;;;13.80;83.70;100216.78;5093625;28;20002;-42
2023/05/09 09:39:13;;;;;;;;;;;;;;;13.86;84.94;100231.16;5093989;28;19951;-41
2023/05/09 09:41:39;;;;;;;;;;;;;;;14.14;83.08;100227.28;5093694;28;19959;-41
2023/05/09 09:44:11;;;;;;;;;;;;;;;14.03;83.00;100229.63;5093532;28;19935;-41
2023/05/09 09:46:45;;;;;;;;;;;;;;;13.72;83.67;100229.56;5093525;28;19912;-41
2023/05/09 09:49:15;;;;;;;;;;;;;;;13.83;84.94;100227.03;5093808;28;19916;-42
2023/05/09 09:51:40;;;;;;;;;;;;;;;13.57;84.78;100217.25;5093907;28;20307;-42
2023/05/09 09:54:10;;;;;;;;;;;;;;;13.50;84.58;100211.13;5093735;28;19912;-41
2023/05/09 09:56:42;;;;;;;;;;;;;;;13.60;83.85;100208.81;5093233;28;19919;-42
2023/05/09 09:59:15;;;;;;;;;;;;;;;13.64;84.59;100219.91;5093363;28;20457;-42
2023/05/09 10:01:52;;;;;;;;;;;;;;;13.71;84.34;100214.53;5093078;28;19916;-41
2023/05/09 10:04:17;;;;;;;;;;;;;;;13.86;83.08;100218.59;5093209;28;19969;-42
2023/05/09 10:06:52;;;;;;;;;;;;;;;13.65;84.00;100211.69;5093103;28;19918;-40
2023/05/09 10:09:17;;;;;;;;;;;;;;;13.93;82.28;100210.50;5093449;28;19916;-41
2023/05/09 10:11:43;;;;;;;;;;;;;;;13.96;83.02;100219.97;5093308;28;19916;-41
2023/05/09 10:14:09;;;;;;;;;;;;;;;13.84;82.77;100211.78;5093064;28;19955;-42
2023/05/09 10:16:35;;;;;;;;;;;;;;;14.77;79.51;100229.13;5093072;28;19943;-42
2023/05/09 10:19:00;;;;;;;;;;;;;;;14.96;77.94;100227.31;5092936;28;20366;-41
2023/05/09 10:21:26;;;;;;;;;;;;;;;15.28;76.51;100227.22;5092671;28;20300;-42
2023/05/09 10:23:53;;;;;;;;;;;;;;;14.50;77.78;100228.50;5092398;28;19926;-42
2023/05/09 10:26:18;;;;;;;;;;;;;;;14.37;78.37;100234.75;5092463;28;19946;-41
2023/05/09 10:28:44;;;;;;;;;;;;;;;14.94;76.45;100226.72;5092726;28;19923;-41
2023/05/09 10:31:15;;;;;;;;;;;;;;;15.17;74.22;100226.91;5092655;28;19916;-42
2023/05/09 10:33:47;;;;;;;;;;;;;;;14.78;76.74;100228.91;5092792;28;20284;-42
2023/05/09 10:36:15;;;;;;;;;;;;;;;14.85;76.48;100240.41;5092485;28;19920;-42
2023/05/09 10:38:41;;;;;;;;;;;;;;;14.92;76.22;100239.50;5092523;28;20163;-41
2023/05/09 10:41:07;;;;;;;;;;;;;;;14.79;76.93;100235.91;5092611;28;19935;-41
2023/05/09 10:43:33;;;;;;;;;;;;;;;14.95;74.84;100247.94;5091241;28;19934;-42
2023/05/09 10:45:58;;;;;;;;;;;;;;;14.61;77.82;100238.53;5092482;28;19912;-41
2023/05/09 10:48:24;;;;;;;;;;;;;;;15.12;75.93;100237.47;5092177;28;19934;-42
2023/05/09 10:50:49;;;;;;;;;;;;;;;14.59;75.96;100241.44;5092111;28;20017;-42
2023/05/09 10:53:17;;;;;;;;;;;;;;;14.48;77.72;100234.06;5092056;28;20007;-42
2023/05/09 10:55:46;;;;;;;;;;;;;;;14.46;78.67;100236.94;5092604;28;19912;-41
2023/05/09 10:58:23;;;;;;;;;;;;;;;14.28;79.65;100237.69;5090729;28;19916;-41
2023/05/09 11:00:49;;;;;;;;;;;;;;;14.36;79.77;100235.81;5089395;28;19916;-41
2023/05/09 11:03:17;;;;;;;;;;;;;;;14.68;78.20;100241.16;5090975;28;19916;-41
2023/05/09 11:05:42;;;;;;;;;;;;;;;14.81;77.97;100241.03;5092079;28;20460;-41
2023/05/09 11:08:17;;;;;;;;;;;;;;;15.01;77.45;100230.97;5091996;28;19999;-40
2023/05/09 11:10:42;;;;;;;;;;;;;;;15.04;76.57;100229.69;5091557;28;20057;-42
2023/05/09 11:13:08;;;;;;;;;;;;;;;15.37;75.22;100231.25;5092192;28;20010;-42
2023/05/09 11:15:33;;;;;;;;;;;;;;;15.59;75.03;100227.06;5091534;28;19923;-41
2023/05/09 11:18:10;;;;;;;;;;;;;;;15.40;73.77;100230.78;5091731;28;19916;-42
2023/05/09 11:20:41;;;;;;;;;;;;;;;15.11;75.97;100221.59;5088653;28;19912;-41
2023/05/09 11:23:07;;;;;;;;;;;;;;;14.80;76.36;100218.78;5091847;28;20067;-41
2023/05/09 11:25:32;;;;;;;;;;;;;;;14.32;77.08;100219.34;5091845;28;19920;-40
2023/05/09 11:27:59;;;;;;;;;;;;;;;14.85;75.72;100221.63;5091410;28;19931;-41
2023/05/09 11:30:34;;;;;;;;;;;;;;;14.73;74.75;100220.69;5091498;28;19912;-41
2023/05/09 11:32:59;;;;;;;;;;;;;;;14.67;76.29;100216.22;5088517;28;20003;-40
2023/05/09 11:35:27;;;;;;;;;;;;;;;14.44;76.21;100225.63;5091139;28;20376;-40
2023/05/09 11:37:54;;;;;;;;;;;;;;;14.63;76.08;100220.38;5091458;28;19916;-40
2023/05/09 11:40:20;;;;;;;;;;;;;;;14.64;75.45;100222.00;5091459;28;19926;-41
2023/05/09 11:42:47;;;;;;;;;;;;;;;14.75;74.21;100223.16;5091512;28;19916;-42
2023/05/09 11:45:13;;;;;;;;;;;;;;;15.15;73.57;100220.13;5091234;28;19923;-42
2023/05/09 11:47:39;;;;;;;;;;;;;;;14.98;73.07;100215.34;5091422;28;19912;-42
2023/05/09 11:50:08;;;;;;;;;;;;;;;15.17;73.77;100216.19;5091466;28;20015;-43
2023/05/09 11:52:34;;;;;;;;;;;;;;;15.31;72.71;100213.38;5091238;28;19916;-36
2023/05/09 11:55:00;;;;;;;;;;;;;;;15.58;71.72;100228.09;5091018;28;20345;-35
2023/05/09 11:57:25;;;;;;;;;;;;;;;15.12;73.66;100220.56;5091135;28;19916;-36
2023/05/09 11:59:51;;;;;;;;;;;;;;;14.83;73.29;100226.41;5089525;28;19917;-36
2023/05/09 12:02:16;;;;;;;;;;;;;;;14.66;75.22;100217.28;5089488;28;19925;-36
2023/05/09 12:04:42;;;;;;;;;;;;;;;14.72;74.17;100210.22;5091091;28;20416;-38
2023/05/09 12:07:10;;;;;;;;;;;;;;;14.72;74.30;100204.88;5090352;28;20402;-36
2023/05/09 12:09:38;;;;;;;;;;;;;;;14.75;73.75;100220.50;5089535;28;19919;-37
2023/05/09 12:12:13;;;;;;;;;;;;;;;15.30;72.38;100211.72;5090878;28;20320;-35
2023/05/09 12:14:39;;;;;;;;;;;;;;;15.25;71.93;100209.72;5073740;28;19958;-36
2023/05/09 12:17:07;;;;;;;;;;;;;;;15.08;72.99;100205.97;5070503;28;19963;-37
2023/05/09 12:19:32;;;;;;;;;;;;;;;15.07;72.74;100213.19;5070279;28;20336;-37
2023/05/09 12:21:58;;;;;;;;;;;;;;;15.18;72.73;100204.41;5070454;28;20376;-37
2023/05/09 12:24:25;;;;;;;;;;;;;;;15.34;71.76;100207.53;5070266;28;20011;-36
2023/05/09 12:26:51;;;;;;;;;;;;;;;15.29;71.15;100197.50;5070496;28;20364;-36
2023/05/09 12:29:17;;;;;;;;;;;;;;;15.21;71.65;100187.06;5088442;28;19997;-36
2023/05/09 12:31:42;;;;;;;;;;;;;;;15.20;71.78;100193.47;5089156;28;19995;-37